»·PEaware :: N2114H KSNA-KSLC

N2114H :: KSNA-KSLC

FLIGHT INFORMATION

Flight Status: Arrived
Operator: Privately registered:
United States
More flights under this callsign
Pilot: John H. (10732)
Aircraft: BRITISH AERO BAe-125-700/800
(H25B)
More flights by this aircraft type
Origin: KSNA John Wayne-Orange Co
United States
Destination: KSLC Salt Lake City Intl
United States
More flights between these airports :: More routes between these airports
Route: +FINZZ2 LAS MMM V8 BCE DELTA5
File this flight plan on PilotEdge
Remarks:
Altitude:
(Current/Filed)
37,000ft
Speed:
(Current/Filed)
400kts
Departed: 16-Jun-19 06:53 PM
Arrived: 16-Jun-19 08:27 PM
Distance/Time
Traveled:
511nm/1:34
Distance/Time
To Go:
Arrived

Flight Plot

Page will automatically refresh every two minutes.

Flight plan parsing failed; only flown route is shown


Map Options




Map Legend


Flown Route
Filed Route
Departure Airport
Arrival Airport
Navaid (VOR, NDB)
Fix

Horizontal Profiles

Position Reports

Time Latitude Longitude Heading Altitude Ground
Speed
16-Jun-19 18:31 33.675294 -117.871270 228 61ft 0kts
16-Jun-19 18:32 33.675294 -117.871270 228 61ft 0kts
16-Jun-19 18:33 33.675294 -117.871270 228 61ft 0kts
16-Jun-19 18:34 33.675294 -117.871270 228 61ft 0kts
16-Jun-19 18:35 33.675294 -117.871270 228 61ft 0kts
16-Jun-19 18:36 33.675294 -117.871270 228 61ft 0kts
16-Jun-19 18:37 33.675294 -117.871270 228 61ft 0kts
16-Jun-19 18:38 33.675294 -117.871270 228 61ft 0kts
16-Jun-19 18:39 33.675294 -117.871270 228 61ft 0kts
16-Jun-19 18:40 33.675294 -117.871270 228 61ft 0kts
16-Jun-19 18:41 33.675294 -117.871270 228 61ft 0kts
16-Jun-19 18:42 33.675294 -117.871270 228 61ft 0kts
16-Jun-19 18:43 33.675294 -117.871270 228 61ft 0kts
16-Jun-19 18:44 33.675294 -117.871270 228 61ft 0kts
16-Jun-19 18:45 33.675294 -117.871270 228 61ft 0kts
16-Jun-19 18:46 33.675294 -117.871270 228 61ft 0kts
16-Jun-19 18:47 33.675050 -117.870801 31 61ft 12kts
16-Jun-19 18:48 33.681240 -117.866999 26 61ft 18kts
16-Jun-19 18:49 33.681815 -117.865836 116 61ft 0kts
16-Jun-19 18:50 33.681815 -117.865834 116 61ft 0kts
16-Jun-19 18:52 33.681809 -117.865821 116 61ft 1kts
16-Jun-19 18:53 33.678028 -117.867345 208 61ft 90kts
16-Jun-19 18:54 33.643358 -117.888692 196 2410ft 138kts
16-Jun-19 18:55 33.587618 -117.896911 188 3576ft 264kts
16-Jun-19 18:56 33.526745 -117.951236 225 7290ft 260kts
16-Jun-19 18:57 33.511422 -118.023852 282 8786ft 224kts
16-Jun-19 18:58 33.547289 -118.087757 310 8034ft 242kts
16-Jun-19 18:59 33.608714 -118.117789 17 8731ft 299kts
16-Jun-19 19:00 33.688264 -118.071274 25 10696ft 330kts
16-Jun-19 19:01 33.769015 -118.024662 25 11990ft 321kts
16-Jun-19 19:02 33.850524 -117.977299 25 13214ft 331kts
16-Jun-19 19:03 33.931072 -117.921573 37 14876ft 338kts
16-Jun-19 19:04 34.007706 -117.851887 36 17349ft 353kts
16-Jun-19 19:05 34.087656 -117.778213 40 20708ft 369kts
16-Jun-19 19:06 34.155059 -117.680138 50 22817ft 408kts
16-Jun-19 19:07 34.228793 -117.570393 50 24961ft 428kts
16-Jun-19 19:08 34.305252 -117.458456 43 27480ft 422kts
16-Jun-19 19:09 34.389348 -117.359181 42 29898ft 417kts
16-Jun-19 19:10 34.473405 -117.259854 42 31313ft 428kts
16-Jun-19 19:11 34.559946 -117.157333 42 32730ft 436kts
16-Jun-19 19:11 34.632900 -117.070674 42 33733ft 444kts
16-Jun-19 19:13 34.736841 -116.946809 42 34878ft 453kts
16-Jun-19 19:14 34.827625 -116.838248 42 35705ft 460kts
16-Jun-19 19:14 34.896560 -116.755561 41 36506ft 456kts
16-Jun-19 19:15 34.984769 -116.642942 44 36890ft 469kts
16-Jun-19 19:16 35.074463 -116.524025 44 36862ft 484kts
16-Jun-19 19:17 35.166607 -116.402002 44 36869ft 492kts
16-Jun-19 19:18 35.259478 -116.278640 44 36865ft 497kts
16-Jun-19 19:19 35.353886 -116.152782 44 36852ft 500kts
16-Jun-19 19:20 35.447990 -116.026857 44 36837ft 497kts
16-Jun-19 19:21 35.539297 -115.904221 44 36804ft 479kts
16-Jun-19 19:22 35.628734 -115.783703 44 36796ft 481kts
16-Jun-19 19:23 35.719117 -115.659638 44 36779ft 488kts
16-Jun-19 19:24 35.809646 -115.534782 44 36777ft 492kts
16-Jun-19 19:25 35.894695 -115.417083 45 36776ft 494kts
16-Jun-19 19:26 35.983100 -115.294303 45 36777ft 495kts
16-Jun-19 19:27 36.073735 -115.167946 45 36778ft 486kts
16-Jun-19 19:28 36.166249 -115.048937 41 36776ft 475kts
16-Jun-19 19:29 36.258627 -114.932716 42 36784ft 475kts
16-Jun-19 19:30 36.351313 -114.814871 42 36800ft 479kts
16-Jun-19 19:31 36.444358 -114.695975 42 36830ft 482kts
16-Jun-19 19:32 36.537501 -114.576480 43 36868ft 480kts
16-Jun-19 19:33 36.630614 -114.456589 43 36906ft 481kts
16-Jun-19 19:34 36.723433 -114.336624 43 36957ft 481kts
16-Jun-19 19:35 36.804554 -114.204723 57 36982ft 484kts
16-Jun-19 19:36 36.873318 -114.060057 57 36994ft 484kts
16-Jun-19 19:37 36.941881 -113.915907 57 37008ft 483kts
16-Jun-19 19:38 37.004971 -113.782777 57 37028ft 483kts
16-Jun-19 19:39 37.073121 -113.638366 57 37059ft 483kts
16-Jun-19 19:40 37.141762 -113.492340 57 37071ft 485kts
16-Jun-19 19:41 37.209611 -113.347331 57 37095ft 479kts
16-Jun-19 19:42 37.276681 -113.203311 58 37097ft 474kts
16-Jun-19 19:43 37.342743 -113.060916 58 37105ft 471kts
16-Jun-19 19:44 37.408598 -112.918343 58 37122ft 470kts
16-Jun-19 19:45 37.474421 -112.775221 58 37128ft 477kts
16-Jun-19 19:46 37.541121 -112.629508 58 37144ft 482kts
16-Jun-19 19:47 37.608082 -112.482557 58 37150ft 485kts
16-Jun-19 19:48 37.674923 -112.335302 57 37153ft 484kts
16-Jun-19 19:49 37.784435 -112.262221 349 37153ft 468kts
16-Jun-19 19:50 37.904384 -112.324107 347 37153ft 469kts
16-Jun-19 19:51 38.023131 -112.340470 354 37146ft 472kts
16-Jun-19 19:52 38.152369 -112.355240 353 37144ft 463kts
16-Jun-19 19:53 38.281214 -112.371546 353 37142ft 468kts
16-Jun-19 19:54 38.411509 -112.388382 353 37138ft 471kts
16-Jun-19 19:55 38.541855 -112.405337 353 37129ft 473kts
16-Jun-19 19:56 38.671501 -112.422270 353 37118ft 463kts
16-Jun-19 19:57 38.799176 -112.439011 353 37102ft 458kts
16-Jun-19 19:58 38.925362 -112.455617 353 37096ft 454kts
16-Jun-19 19:59 39.051205 -112.472241 353 37087ft 458kts
16-Jun-19 20:00 39.176934 -112.488893 353 36296ft 432kts
16-Jun-19 20:01 39.291022 -112.501244 0 33532ft 401kts
16-Jun-19 20:02 39.401193 -112.472800 12 30251ft 417kts
16-Jun-19 20:03 39.515797 -112.434714 12 27409ft 427kts
16-Jun-19 20:04 39.630388 -112.396540 12 25139ft 422kts
16-Jun-19 20:05 39.734216 -112.361845 12 23086ft 419kts
16-Jun-19 20:06 39.846673 -112.324144 12 20865ft 415kts
16-Jun-19 20:07 39.959240 -112.286284 12 18649ft 420kts
16-Jun-19 20:08 40.072719 -112.247971 13 16513ft 418kts
16-Jun-19 20:09 40.186203 -112.209355 12 14532ft 413kts
16-Jun-19 20:10 40.295906 -112.172201 13 14039ft 429kts
16-Jun-19 20:11 40.407178 -112.134255 13 13657ft 394kts
16-Jun-19 20:12 40.511221 -112.098428 13 12583ft 385kts
16-Jun-19 20:13 40.613057 -112.079801 1 11224ft 359kts
16-Jun-19 20:14 40.706887 -112.086854 354 10952ft 306kts
16-Jun-19 20:15 40.783593 -112.095718 354 10606ft 253kts
16-Jun-19 20:16 40.850981 -112.103960 354 9285ft 239kts
16-Jun-19 20:17 40.917821 -112.111531 5 7829ft 242kts
16-Jun-19 20:18 40.949164 -112.043626 81 6365ft 228kts
16-Jun-19 20:19 40.942458 -111.965109 125 6028ft 235kts
16-Jun-19 20:20 40.889099 -111.961373 185 6026ft 174kts
16-Jun-19 20:21 40.848482 -111.961539 181 5415ft 127kts
16-Jun-19 20:22 40.815498 -111.961925 179 4459ft 109kts
16-Jun-19 20:26 40.791460 -111.961087 95 4232ft 0kts
16-Jun-19 20:27 40.791460 -111.961084 95 4232ft 0kts
16-Jun-19 20:28 40.791085 -111.959997 156 4232ft 7kts
16-Jun-19 20:29 40.788356 -111.959932 179 4232ft 11kts
16-Jun-19 20:30 40.784952 -111.958955 158 4232ft 13kts
16-Jun-19 20:31 40.781381 -111.958807 89 4232ft 6kts
16-Jun-19 20:32 40.780801 -111.958494 180 4232ft 0kts

Navigation Log

Ident Type
Flight plan parsing failed, navigation log unavailable